Royal Oaks, North Carolina
Current Conditions -  °F | °C
As of 6:50 AM on Saturday 20 Dec 2014 (Local Time) from KJQF Reporting Station
Overcast Overcast  
Wind Chill: 41°   Ceiling: 4200
Heat Index: 41°   Visibility: 7mi
Dew Point: 32°   Wind: 0mph
Humidity: 70%   Direction: NA
Pressure: 30.25"   Gusts: NA
Location:  35.5043°N, 80.6706°W
Report Text: KJQF 201150Z 00000KT 7SM OVC042 05/00 A3025
Loading
Personal Weather Stations






























Interactive Weather Map New forecast layout! Learn more

10-Day Weather Forecast

Advertisements
Track Severe Weather on mobile